Time;durP1;ratioP1;P1;durP2;ratioP2;P2;SDS_P1;SDS_P2;PMS_P1;PMS_P2;Temp;Humidity;BMP_temperature;BMP_pressure;BME280_temperature;BME280_humidity;BME280_pressure;Samples;Min_cycle;Max_cycle;Signal;HPM_P1;HPM_P2
2022/10/10 00:00:49;;;;;;;15.90;14.60;;;8.40;99.90;;;;;;5043111;28;20106;-70
2022/10/10 00:03:16;;;;;;;15.98;15.05;;;8.50;99.90;;;;;;5049267;28;20036;-71
2022/10/10 00:05:43;;;;;;;17.15;15.68;;;8.60;99.90;;;;;;5018916;28;20049;-70
2022/10/10 00:08:10;;;;;;;15.85;14.95;;;8.70;99.90;;;;;;5042454;28;20755;-71
2022/10/10 00:10:37;;;;;;;16.75;15.45;;;8.70;99.90;;;;;;5043083;28;20589;-72
2022/10/10 00:13:05;;;;;;;17.35;15.93;;;8.70;99.90;;;;;;5031561;28;20518;-71
2022/10/10 00:15:32;;;;;;;16.75;15.70;;;8.80;99.90;;;;;;5041443;28;20045;-71
2022/10/10 00:17:58;;;;;;;16.83;15.52;;;8.70;99.90;;;;;;5035874;28;20055;-72
2022/10/10 00:20:25;;;;;;;17.35;15.93;;;8.80;99.90;;;;;;5033320;28;20053;-72
2022/10/10 00:22:52;;;;;;;17.50;16.10;;;8.80;99.90;;;;;;5039189;28;20438;-71
2022/10/10 00:25:20;;;;;;;16.60;15.45;;;8.70;99.90;;;;;;5041262;28;20127;-71
2022/10/10 00:27:47;;;;;;;17.25;16.00;;;8.70;99.90;;;;;;5036976;28;20037;-71
2022/10/10 00:30:13;;;;;;;18.05;16.52;;;8.80;99.90;;;;;;5039094;28;20132;-71
2022/10/10 00:32:40;;;;;;;18.83;17.58;;;8.70;99.90;;;;;;5022604;28;20045;-71
2022/10/10 00:35:07;;;;;;;16.73;15.63;;;8.70;99.90;;;;;;5031879;28;20033;-71
2022/10/10 00:37:34;;;;;;;17.20;15.70;;;8.70;99.90;;;;;;5047704;28;20041;-72
2022/10/10 00:40:02;;;;;;;16.75;15.75;;;8.70;99.90;;;;;;5024008;28;20037;-71
2022/10/10 00:42:28;;;;;;;16.30;15.20;;;8.70;99.90;;;;;;5048996;28;20037;-71
2022/10/10 00:45:27;;;;;;;16.23;15.10;;;8.70;99.90;;;;;;5033861;28;20045;-71
2022/10/10 00:48:18;;;;;;;16.77;15.68;;;8.70;99.90;;;;;;5026728;28;20051;-71
2022/10/10 00:50:47;;;;;;;17.20;16.00;;;8.70;99.90;;;;;;5021903;28;20059;-71
2022/10/10 00:53:18;;;;;;;16.00;14.98;;;8.70;99.90;;;;;;5051884;28;20048;-71
2022/10/10 00:55:46;;;;;;;17.17;16.00;;;8.70;99.90;;;;;;5037345;28;20553;-71
2022/10/10 00:58:14;;;;;;;16.65;15.55;;;8.70;99.90;;;;;;5045372;28;20139;-71
2022/10/10 01:00:41;;;;;;;18.00;16.48;;;8.70;99.90;;;;;;5031563;28;20056;-72
2022/10/10 01:03:08;;;;;;;16.77;15.68;;;8.60;99.90;;;;;;5030958;23;20037;-70
2022/10/10 01:05:35;;;;;;;17.70;16.33;;;8.70;99.90;;;;;;5011970;28;20033;-74
2022/10/10 01:08:04;;;;;;;16.73;15.45;;;8.70;99.90;;;;;;5004128;28;20050;-70
2022/10/10 01:10:40;;;;;;;17.25;16.23;;;8.70;99.90;;;;;;5002518;28;20103;-70
2022/10/10 01:13:21;;;;;;;17.85;16.38;;;8.70;99.90;;;;;;5003227;28;20126;-70
2022/10/10 01:16:00;;;;;;;17.40;16.15;;;8.70;99.90;;;;;;4988969;28;20033;-70
2022/10/10 01:19:04;;;;;;;16.90;15.90;;;8.60;99.90;;;;;;5019142;28;20069;-70
2022/10/10 01:22:10;;;;;;;16.70;15.20;;;8.50;99.90;;;;;;4990705;28;20041;-69
2022/10/10 01:24:55;;;;;;;16.00;14.90;;;8.40;99.90;;;;;;4951767;28;20135;-69
2022/10/10 01:27:30;;;;;;;16.00;14.98;;;8.30;99.90;;;;;;5021313;28;20065;-71
2022/10/10 01:30:08;;;;;;;16.65;15.35;;;8.10;99.90;;;;;;5003341;28;20041;-71
2022/10/10 01:32:44;;;;;;;17.30;16.10;;;8.00;99.90;;;;;;5017669;28;20138;-71
2022/10/10 01:35:30;;;;;;;16.38;15.18;;;8.00;99.90;;;;;;5019684;28;20576;-72
2022/10/10 01:38:03;;;;;;;16.42;15.13;;;7.90;99.90;;;;;;5014444;28;20034;-71
2022/10/10 01:40:39;;;;;;;16.63;15.40;;;7.80;99.90;;;;;;5017675;28;20049;-70
2022/10/10 01:43:07;;;;;;;15.80;14.73;;;7.70;99.90;;;;;;5006369;28;20041;-71
2022/10/10 01:45:34;;;;;;;15.55;14.40;;;7.60;99.90;;;;;;5017868;28;20036;-70
2022/10/10 01:48:03;;;;;;;15.82;14.48;;;7.50;99.90;;;;;;5005139;28;20053;-69
2022/10/10 01:50:35;;;;;;;15.65;14.57;;;7.50;99.90;;;;;;5018696;28;20442;-68
2022/10/10 01:53:05;;;;;;;16.60;15.30;;;7.40;99.90;;;;;;5002765;28;20049;-69
2022/10/10 01:56:02;;;;;;;15.63;14.50;;;7.30;99.90;;;;;;4993239;28;20045;-70
2022/10/10 01:58:47;;;;;;;15.88;14.60;;;7.40;99.90;;;;;;5001807;28;20046;-70
2022/10/10 02:01:21;;;;;;;14.88;13.55;;;7.30;99.90;;;;;;5017534;28;20045;-69
2022/10/10 02:03:55;;;;;;;15.10;14.00;;;7.20;99.90;;;;;;5014184;28;20045;-69
2022/10/10 02:06:29;;;;;;;14.48;13.38;;;7.10;99.90;;;;;;5016888;28;20037;-69
2022/10/10 02:09:02;;;;;;;14.68;13.70;;;7.00;99.90;;;;;;5015644;28;20140;-71
2022/10/10 02:11:33;;;;;;;14.10;13.05;;;7.10;99.90;;;;;;5019753;28;20080;-68
2022/10/10 02:14:15;;;;;;;13.77;12.85;;;7.10;99.90;;;;;;5016326;28;21569;-70
2022/10/10 02:16:44;;;;;;;14.13;12.98;;;7.20;99.90;;;;;;5018549;28;20049;-69
2022/10/10 02:19:15;;;;;;;14.23;13.27;;;7.30;99.90;;;;;;5003518;28;20044;-69
2022/10/10 02:21:44;;;;;;;14.98;14.07;;;7.40;99.90;;;;;;4994879;28;20068;-69
2022/10/10 02:24:12;;;;;;;16.35;14.82;;;7.40;99.90;;;;;;5003599;28;20051;-70
2022/10/10 02:26:42;;;;;;;15.48;14.38;;;7.30;99.90;;;;;;5017918;28;20514;-69
2022/10/10 02:29:19;;;;;;;15.30;14.35;;;7.30;99.90;;;;;;5019648;28;20041;-69
2022/10/10 02:31:45;;;;;;;16.45;15.25;;;7.20;99.90;;;;;;5001071;28;20048;-71
2022/10/10 02:34:23;;;;;;;17.10;15.80;;;7.10;99.90;;;;;;5010953;28;20045;-71
2022/10/10 02:36:54;;;;;;;16.02;14.93;;;6.90;99.90;;;;;;5014705;28;20044;-71
2022/10/10 02:39:26;;;;;;;14.82;13.45;;;6.90;99.90;;;;;;5017733;28;20037;-69
2022/10/10 02:41:52;;;;;;;14.43;13.40;;;6.90;99.90;;;;;;4998806;28;20039;-69
2022/10/10 02:44:20;;;;;;;15.07;13.65;;;6.90;99.90;;;;;;5003717;28;20043;-72
2022/10/10 02:46:46;;;;;;;14.35;13.35;;;6.80;99.90;;;;;;4987484;28;20038;-71
2022/10/10 02:49:13;;;;;;;14.35;13.10;;;6.70;99.90;;;;;;5008250;28;20041;-71
2022/10/10 02:51:40;;;;;;;15.18;13.35;;;6.70;99.90;;;;;;5012463;28;20500;-69
2022/10/10 02:54:07;;;;;;;14.18;12.80;;;6.70;99.90;;;;;;5004224;28;20076;-71
2022/10/10 02:56:34;;;;;;;13.95;12.80;;;6.70;99.90;;;;;;5019569;28;20072;-71
2022/10/10 02:59:01;;;;;;;13.23;12.25;;;6.70;99.90;;;;;;4999225;28;20638;-71
2022/10/10 03:01:27;;;;;;;13.90;12.68;;;6.70;99.90;;;;;;5018715;28;20420;-71
2022/10/10 03:03:54;;;;;;;14.23;13.32;;;6.80;99.90;;;;;;5015025;28;20057;-72
2022/10/10 03:06:21;;;;;;;13.00;11.93;;;6.80;99.90;;;;;;5004699;28;20045;-71
2022/10/10 03:08:48;;;;;;;14.20;13.10;;;6.70;99.90;;;;;;5015553;28;20511;-70
2022/10/10 03:11:14;;;;;;;14.45;13.13;;;6.70;99.90;;;;;;5005723;28;20037;-71
2022/10/10 03:13:41;;;;;;;12.38;11.32;;;6.70;99.90;;;;;;5018554;28;20055;-70
2022/10/10 03:16:08;;;;;;;12.82;11.85;;;6.50;99.90;;;;;;5011213;28;20059;-71
2022/10/10 03:18:34;;;;;;;21.73;12.90;;;6.60;99.90;;;;;;5010522;28;20141;-72
2022/10/10 03:21:02;;;;;;;13.85;12.57;;;6.70;99.90;;;;;;5018080;28;20045;-70
2022/10/10 03:23:28;;;;;;;14.20;13.20;;;6.80;99.90;;;;;;5002588;28;20435;-71
2022/10/10 03:25:57;;;;;;;14.50;13.13;;;6.70;99.90;;;;;;5019195;28;20131;-70
2022/10/10 03:28:24;;;;;;;14.25;13.10;;;6.70;99.90;;;;;;5017114;28;20037;-70
2022/10/10 03:30:51;;;;;;;14.70;13.50;;;6.60;99.90;;;;;;5016512;28;20061;-70
2022/10/10 03:33:17;;;;;;;15.88;14.23;;;6.60;99.90;;;;;;5013318;28;20569;-70
2022/10/10 03:35:44;;;;;;;15.00;13.93;;;6.70;99.90;;;;;;5016468;28;20041;-71
2022/10/10 03:38:12;;;;;;;16.33;15.13;;;6.70;99.90;;;;;;5020144;28;20400;-71
2022/10/10 03:40:40;;;;;;;14.55;13.65;;;6.70;99.90;;;;;;5022835;28;20045;-70
2022/10/10 03:43:08;;;;;;;15.20;13.85;;;6.70;99.90;;;;;;5004379;28;20045;-71
2022/10/10 03:45:35;;;;;;;14.38;13.10;;;6.70;99.90;;;;;;5007626;28;20038;-70
2022/10/10 03:48:03;;;;;;;13.98;13.05;;;6.70;99.90;;;;;;5016909;28;20558;-71
2022/10/10 03:50:30;;;;;;;15.68;14.38;;;6.60;99.90;;;;;;5002984;28;20077;-69
2022/10/10 03:52:57;;;;;;;14.40;13.00;;;6.70;99.90;;;;;;4988827;28;20503;-70
2022/10/10 03:55:24;;;;;;;14.38;13.25;;;6.60;99.90;;;;;;5015731;28;20033;-68
2022/10/10 03:57:50;;;;;;;16.15;14.77;;;6.60;99.90;;;;;;5012158;28;20044;-70
2022/10/10 04:00:19;;;;;;;15.02;13.93;;;6.70;99.90;;;;;;5002410;28;20045;-75
2022/10/10 04:02:45;;;;;;;15.20;13.88;;;6.60;99.90;;;;;;5016120;28;20045;-73
2022/10/10 04:05:12;;;;;;;14.55;13.57;;;6.60;99.90;;;;;;5008988;28;20048;-75
2022/10/10 04:07:40;;;;;;;16.70;15.30;;;6.50;99.90;;;;;;5021370;28;20229;-73
2022/10/10 04:10:08;;;;;;;16.25;14.93;;;6.50;99.90;;;;;;4999967;28;20120;-72
2022/10/10 04:12:35;;;;;;;17.08;15.30;;;6.60;99.90;;;;;;5004067;28;20053;-73
2022/10/10 04:15:02;;;;;;;16.67;15.20;;;6.60;99.90;;;;;;5008386;28;20677;-74
2022/10/10 04:17:28;;;;;;;15.93;14.63;;;6.50;99.90;;;;;;4998872;28;20045;-74
2022/10/10 04:19:55;;;;;;;15.88;14.30;;;6.40;99.90;;;;;;5017819;28;20480;-74
2022/10/10 04:22:22;;;;;;;15.32;13.90;;;6.50;99.90;;;;;;4986921;28;20038;-75
2022/10/10 04:24:49;;;;;;;15.27;14.25;;;6.50;99.90;;;;;;5008613;28;20037;-73
2022/10/10 04:27:15;;;;;;;16.75;15.13;;;6.60;99.90;;;;;;5019879;28;20045;-70
2022/10/10 04:29:43;;;;;;;15.77;14.55;;;6.70;99.90;;;;;;5019338;28;20056;-69
2022/10/10 04:32:10;;;;;;;14.82;13.80;;;6.60;99.90;;;;;;5025694;28;20428;-70
2022/10/10 04:34:36;;;;;;;14.90;13.80;;;6.70;99.90;;;;;;5008895;28;20144;-69
2022/10/10 04:37:03;;;;;;;15.55;14.27;;;6.70;99.90;;;;;;5020435;28;20049;-70
2022/10/10 04:39:29;;;;;;;15.07;14.18;;;6.70;99.90;;;;;;5024367;28;20050;-70
2022/10/10 04:41:56;;;;;;;16.80;15.23;;;6.70;99.90;;;;;;4989359;28;20419;-70
2022/10/10 04:44:23;;;;;;;17.02;15.48;;;6.60;99.90;;;;;;5020734;28;20499;-69
2022/10/10 04:46:49;;;;;;;16.15;14.77;;;6.70;99.90;;;;;;5007179;28;20056;-71
2022/10/10 04:49:16;;;;;;;16.23;14.77;;;6.70;99.90;;;;;;5019434;28;20084;-77
2022/10/10 04:51:43;;;;;;;16.35;14.63;;;6.70;99.90;;;;;;5019878;28;20038;-76
2022/10/10 04:54:10;;;;;;;16.13;15.02;;;6.80;99.90;;;;;;5006393;28;20663;-70
2022/10/10 04:56:36;;;;;;;16.30;14.93;;;6.80;99.90;;;;;;5020637;28;20049;-75
2022/10/10 04:59:04;;;;;;;16.05;14.70;;;6.90;99.90;;;;;;5003303;28;20053;-74
2022/10/10 05:01:31;;;;;;;17.58;15.80;;;6.90;99.90;;;;;;5020172;28;20045;-72
2022/10/10 05:03:59;;;;;;;16.42;15.00;;;6.80;99.90;;;;;;5019098;28;20676;-71
2022/10/10 05:06:26;;;;;;;15.95;14.20;;;6.80;99.90;;;;;;5019642;28;20046;-69
2022/10/10 05:08:52;;;;;;;17.90;15.20;;;6.70;99.90;;;;;;5021291;28;20045;-70
2022/10/10 05:11:19;;;;;;;15.98;14.52;;;6.80;99.90;;;;;;5006719;28;20400;-71
2022/10/10 05:13:46;;;;;;;16.25;14.63;;;6.60;99.90;;;;;;4998831;28;20051;-69
2022/10/10 05:16:12;;;;;;;14.85;13.43;;;6.50;99.90;;;;;;5007498;28;20549;-71
2022/10/10 05:18:39;;;;;;;15.15;13.55;;;6.50;99.90;;;;;;4991333;28;20128;-69
2022/10/10 05:21:06;;;;;;;13.63;12.48;;;6.60;99.90;;;;;;5016317;28;20056;-71
2022/10/10 05:23:34;;;;;;;14.88;13.57;;;6.60;99.90;;;;;;5019889;28;20583;-74
2022/10/10 05:26:01;;;;;;;15.30;13.80;;;6.50;99.90;;;;;;5020510;28;20132;-73
2022/10/10 05:28:27;;;;;;;16.65;13.75;;;6.50;99.90;;;;;;5019203;28;20439;-76
2022/10/10 05:30:54;;;;;;;15.60;14.25;;;6.50;99.90;;;;;;5018139;28;20041;-75
2022/10/10 05:33:21;;;;;;;14.75;13.50;;;6.40;99.90;;;;;;5008536;28;20078;-74
2022/10/10 05:35:47;;;;;;;17.40;14.52;;;6.30;99.90;;;;;;5014386;28;20836;-75
2022/10/10 05:38:14;;;;;;;14.60;13.60;;;6.20;99.90;;;;;;5026811;28;20042;-73
2022/10/10 05:40:41;;;;;;;18.55;14.25;;;6.20;99.90;;;;;;5017286;28;20054;-73
2022/10/10 05:43:08;;;;;;;15.68;14.13;;;6.10;99.90;;;;;;5004865;28;20049;-74
2022/10/10 05:45:35;;;;;;;16.15;14.60;;;6.10;99.90;;;;;;5020757;28;20128;-73
2022/10/10 05:48:01;;;;;;;15.93;14.48;;;6.00;99.90;;;;;;5018254;28;20806;-73
2022/10/10 05:50:34;;;;;;;20.30;16.02;;;6.10;99.90;;;;;;5009635;28;20522;-73
2022/10/10 05:53:01;;;;;;;23.48;20.88;;;6.10;99.90;;;;;;5020261;28;21133;-75
2022/10/10 05:55:28;;;;;;;19.00;17.25;;;6.10;99.90;;;;;;5018161;28;20034;-73
2022/10/10 05:57:54;;;;;;;22.45;20.33;;;6.20;99.90;;;;;;5018619;28;20061;-74
2022/10/10 06:00:21;;;;;;;15.52;13.98;;;6.30;99.90;;;;;;5020175;28;20049;-72
2022/10/10 06:02:48;;;;;;;15.98;14.52;;;6.30;99.90;;;;;;5013848;28;20063;-74
2022/10/10 06:05:15;;;;;;;15.25;13.85;;;6.30;99.90;;;;;;5020181;28;20037;-74
2022/10/10 06:07:42;;;;;;;17.00;14.95;;;6.30;99.90;;;;;;5018089;28;20049;-73
2022/10/10 06:10:29;;;;;;;14.90;13.23;;;6.20;99.90;;;;;;5014175;28;20398;-75
2022/10/10 06:12:55;;;;;;;19.40;14.30;;;6.30;99.90;;;;;;5008506;28;20045;-73
2022/10/10 06:15:22;;;;;;;13.73;12.52;;;6.20;99.90;;;;;;4999594;28;20057;-76
2022/10/10 06:17:49;;;;;;;15.05;12.98;;;6.10;99.90;;;;;;5017040;28;20042;-75
2022/10/10 06:20:16;;;;;;;14.80;13.15;;;6.20;99.90;;;;;;5016686;28;20510;-73
2022/10/10 06:22:42;;;;;;;14.68;13.25;;;6.30;99.90;;;;;;5020218;28;20056;-75
2022/10/10 06:25:09;;;;;;;14.93;13.43;;;6.30;99.90;;;;;;4998501;28;20033;-74
2022/10/10 06:27:56;;;;;;;14.65;13.15;;;6.40;99.90;;;;;;5014222;28;20037;-73
2022/10/10 06:30:23;;;;;;;16.45;12.50;;;6.40;99.90;;;;;;5001863;28;20682;-76
2022/10/10 06:32:49;;;;;;;16.17;13.93;;;6.50;99.90;;;;;;5021905;28;20036;-76
2022/10/10 06:35:22;;;;;;;14.70;13.20;;;6.40;99.90;;;;;;5025298;28;20064;-74
2022/10/10 06:37:49;;;;;;;14.65;13.00;;;6.50;99.90;;;;;;5022534;28;20033;-73
2022/10/10 06:40:15;;;;;;;13.88;12.50;;;6.50;99.90;;;;;;5019886;28;20430;-68
2022/10/10 06:42:42;;;;;;;17.55;13.32;;;6.50;99.90;;;;;;5017621;28;20390;-70
2022/10/10 06:45:09;;;;;;;14.95;12.43;;;6.60;99.90;;;;;;4988439;28;20083;-70
2022/10/10 06:47:36;;;;;;;14.70;12.98;;;6.80;99.90;;;;;;5004230;28;20512;-70
2022/10/10 06:50:02;;;;;;;18.77;13.98;;;6.80;99.90;;;;;;5011998;28;20769;-71
2022/10/10 06:52:29;;;;;;;15.60;13.88;;;6.90;99.90;;;;;;5007136;28;20041;-70
2022/10/10 06:54:56;;;;;;;14.25;13.05;;;6.90;99.90;;;;;;5000776;28;20389;-70
2022/10/10 06:57:23;;;;;;;15.20;13.75;;;7.00;99.90;;;;;;5006554;28;20040;-70
2022/10/10 06:59:49;;;;;;;14.20;12.48;;;7.00;99.90;;;;;;5017814;28;20458;-70
2022/10/10 07:02:18;;;;;;;15.18;13.77;;;7.20;99.90;;;;;;5025050;22;20048;31
2022/10/10 07:04:45;;;;;;;14.00;12.65;;;7.30;99.90;;;;;;4965626;28;20054;-70
2022/10/10 07:07:11;;;;;;;15.57;14.23;;;7.40;99.90;;;;;;4974779;28;20046;-71
2022/10/10 07:09:38;;;;;;;15.52;14.00;;;7.50;99.90;;;;;;4974595;28;20054;-71
2022/10/10 07:12:05;;;;;;;15.10;13.60;;;7.50;99.90;;;;;;4973718;28;20062;-70
2022/10/10 07:14:32;;;;;;;16.52;14.70;;;7.70;99.90;;;;;;4994009;28;20053;-70
2022/10/10 07:16:58;;;;;;;15.60;14.30;;;7.80;99.90;;;;;;4993729;28;20037;-70
2022/10/10 07:19:25;;;;;;;16.50;14.75;;;7.90;99.90;;;;;;4992625;28;20044;-69
2022/10/10 07:21:52;;;;;;;15.80;14.23;;;8.00;99.90;;;;;;4992103;28;20038;-70
2022/10/10 07:24:18;;;;;;;15.68;14.07;;;8.20;99.90;;;;;;4994362;28;20427;-70
2022/10/10 07:26:45;;;;;;;15.68;14.30;;;8.40;99.90;;;;;;4993001;28;20049;-71
2022/10/10 07:29:12;;;;;;;16.58;15.27;;;8.60;99.90;;;;;;4995746;28;20064;-70
2022/10/10 07:31:38;;;;;;;16.75;15.20;;;8.80;99.90;;;;;;4994978;28;20042;-70
2022/10/10 07:34:05;;;;;;;15.93;14.32;;;9.00;99.90;;;;;;4990090;28;20527;-71
2022/10/10 07:36:32;;;;;;;16.33;14.88;;;9.10;99.90;;;;;;4993512;28;20042;-70
2022/10/10 07:38:59;;;;;;;17.90;16.50;;;9.30;99.90;;;;;;4993045;28;20042;-70
2022/10/10 07:41:26;;;;;;;17.92;16.73;;;9.50;99.90;;;;;;4992550;28;20101;-71
2022/10/10 07:43:53;;;;;;;18.70;17.33;;;9.60;99.90;;;;;;4988240;28;20038;-71
2022/10/10 07:46:20;;;;;;;19.45;17.88;;;9.70;99.90;;;;;;4994471;28;20128;-70
2022/10/10 07:48:48;;;;;;;18.05;16.50;;;9.90;99.90;;;;;;4991567;28;20076;-71
2022/10/10 07:51:14;;;;;;;17.85;16.58;;;10.10;99.90;;;;;;4996435;28;20049;-70
2022/10/10 07:53:43;;;;;;;18.60;17.13;;;10.20;99.90;;;;;;4991015;28;20116;-70
2022/10/10 07:56:10;;;;;;;19.63;17.90;;;10.40;99.90;;;;;;4991791;28;20040;-70
2022/10/10 07:58:37;;;;;;;21.73;19.58;;;10.60;99.90;;;;;;4994553;28;20104;-70
2022/10/10 08:01:04;;;;;;;20.50;19.23;;;10.90;99.90;;;;;;4992413;28;20076;-70
2022/10/10 08:03:31;;;;;;;21.95;20.27;;;11.30;99.90;;;;;;4994325;28;20385;-71
2022/10/10 08:06:02;;;;;;;21.55;20.25;;;11.80;99.90;;;;;;4997163;28;20038;-71
2022/10/10 08:08:30;;;;;;;21.83;20.33;;;12.20;99.90;;;;;;4998829;28;20049;-71
2022/10/10 08:11:00;;;;;;;23.25;21.38;;;12.60;99.90;;;;;;4995201;28;20038;-71
2022/10/10 08:13:26;;;;;;;22.38;20.73;;;12.90;99.90;;;;;;4996026;28;20069;-71
2022/10/10 08:15:53;;;;;;;22.08;20.42;;;13.20;99.90;;;;;;4996639;28;20045;-71
2022/10/10 08:18:20;;;;;;;21.88;20.48;;;13.60;99.90;;;;;;4999359;28;20046;-71
2022/10/10 08:20:47;;;;;;;23.63;21.52;;;13.80;99.90;;;;;;4996157;28;20064;-71
2022/10/10 08:23:13;;;;;;;22.83;21.23;;;13.90;99.90;;;;;;4998733;28;20463;-71
2022/10/10 08:25:40;;;;;;;22.02;20.30;;;14.00;99.90;;;;;;4998921;28;20076;-71
2022/10/10 08:28:07;;;;;;;22.27;20.58;;;14.30;99.90;;;;;;4996621;28;20523;-71
2022/10/10 08:30:33;;;;;;;21.73;20.15;;;14.50;99.90;;;;;;4996866;28;20049;-70
2022/10/10 08:33:00;;;;;;;22.02;20.42;;;14.70;99.90;;;;;;4995771;28;20237;-71
2022/10/10 08:35:27;;;;;;;21.88;20.40;;;14.80;99.90;;;;;;4996954;28;20045;-71
2022/10/10 08:37:54;;;;;;;21.55;20.05;;;15.10;99.90;;;;;;4994887;28;20037;-71
2022/10/10 08:40:22;;;;;;;22.40;20.33;;;15.00;99.90;;;;;;4996976;28;20042;-71
2022/10/10 08:42:53;;;;;;;22.77;20.90;;;15.00;99.90;;;;;;4993742;28;20038;-71
2022/10/10 08:45:25;;;;;;;21.80;20.42;;;14.80;99.90;;;;;;4992034;28;20047;-71
2022/10/10 08:47:51;;;;;;;21.85;20.40;;;14.80;99.90;;;;;;4994337;28;20133;-70
2022/10/10 08:50:29;;;;;;;21.52;19.92;;;14.90;99.90;;;;;;4997219;28;20042;-71
2022/10/10 08:53:09;;;;;;;23.35;21.20;;;15.10;99.90;;;;;;4995131;28;20041;-71
2022/10/10 08:55:42;;;;;;;22.63;21.02;;;15.10;99.90;;;;;;4997239;28;20034;-71
2022/10/10 08:58:22;;;;;;;22.70;21.20;;;15.20;99.90;;;;;;4993258;28;20107;-71
2022/10/10 09:01:00;;;;;;;22.33;20.85;;;15.40;99.90;;;;;;4977530;28;20045;-71
2022/10/10 09:03:44;;;;;;;23.10;21.23;;;15.50;99.90;;;;;;4995342;28;20042;-71
2022/10/10 09:06:47;;;;;;;22.63;20.95;;;15.70;99.90;;;;;;4996700;28;20049;-71
2022/10/10 09:09:40;;;;;;;22.98;21.38;;;15.90;99.90;;;;;;4994589;28;20038;-71
2022/10/10 09:12:10;;;;;;;23.27;21.75;;;16.10;99.90;;;;;;4993950;28;20042;-71
2022/10/10 09:14:58;;;;;;;23.27;21.58;;;16.50;99.90;;;;;;4995683;28;20042;-71
2022/10/10 09:17:34;;;;;;;23.75;21.90;;;16.50;99.90;;;;;;4997001;28;20042;-71
2022/10/10 09:20:13;;;;;;;24.02;22.52;;;16.40;99.90;;;;;;4995182;28;20030;-71
2022/10/10 09:22:52;;;;;;;23.52;21.73;;;16.60;99.90;;;;;;4995169;28;20038;-70
2022/10/10 09:25:27;;;;;;;24.77;22.73;;;16.80;99.90;;;;;;4995307;28;20046;-71
2022/10/10 09:28:04;;;;;;;23.85;22.35;;;16.80;99.90;;;;;;4994767;28;20480;-71
2022/10/10 09:30:34;;;;;;;24.02;22.13;;;16.80;99.90;;;;;;4977176;28;20547;-70
2022/10/10 09:33:22;;;;;;;24.10;22.20;;;16.80;99.90;;;;;;4994237;28;20422;-72
2022/10/10 09:35:53;;;;;;;24.15;22.40;;;16.70;99.90;;;;;;4991412;28;20049;-71
2022/10/10 09:38:27;;;;;;;24.13;22.55;;;16.70;99.90;;;;;;4992619;28;20042;-71
2022/10/10 09:41:12;;;;;;;23.48;21.85;;;16.70;99.90;;;;;;4991085;28;20041;-71
2022/10/10 09:43:39;;;;;;;25.17;23.08;;;16.80;99.90;;;;;;4993620;28;20050;-71
2022/10/10 09:46:06;;;;;;;24.52;22.67;;;16.90;99.90;;;;;;4994005;28;20041;-71
2022/10/10 09:48:41;;;;;;;24.25;22.42;;;17.10;99.90;;;;;;4995514;28;20065;-71
2022/10/10 09:51:14;;;;;;;24.45;22.67;;;17.30;99.90;;;;;;4995117;28;20045;-71
2022/10/10 09:53:43;;;;;;;24.60;22.52;;;17.50;99.90;;;;;;4991180;28;20065;-71
2022/10/10 09:56:21;;;;;;;24.45;22.73;;;17.70;99.90;;;;;;4991221;28;20042;-72
2022/10/10 09:58:50;;;;;;;24.02;22.38;;;17.80;99.90;;;;;;4991994;28;20064;-71
2022/10/10 10:01:22;;;;;;;24.45;22.77;;;17.60;99.90;;;;;;4995401;28;20388;-71
2022/10/10 10:04:15;;;;;;;24.88;23.20;;;17.70;99.90;;;;;;4993161;28;20042;-72
2022/10/10 10:07:17;;;;;;;24.25;22.33;;;17.70;99.90;;;;;;4992177;28;20411;-72
2022/10/10 10:09:49;;;;;;;23.80;22.25;;;17.80;99.90;;;;;;4994872;28;20054;-71
2022/10/10 10:12:23;;;;;;;25.77;22.98;;;17.80;99.90;;;;;;4994320;28;20053;-71
2022/10/10 10:14:57;;;;;;;24.37;22.63;;;18.00;99.90;;;;;;5003763;28;20046;-71
2022/10/10 10:17:24;;;;;;;24.00;22.00;;;18.40;99.90;;;;;;4993128;28;20060;-71
2022/10/10 10:19:51;;;;;;;24.13;22.25;;;18.40;99.90;;;;;;4991582;28;20392;-71
2022/10/10 10:22:37;;;;;;;23.67;21.98;;;18.30;99.90;;;;;;4993536;28;20041;-70
2022/10/10 10:25:29;;;;;;;24.40;22.77;;;18.30;99.90;;;;;;4992906;28;20578;-73
2022/10/10 10:28:09;;;;;;;24.02;22.52;;;18.20;99.90;;;;;;4993740;28;20504;-72
2022/10/10 10:30:43;;;;;;;24.85;22.85;;;18.30;99.90;;;;;;4989908;28;20046;-71
2022/10/10 10:33:55;;;;;;;24.20;22.58;;;18.40;99.90;;;;;;4995916;28;20246;-73
2022/10/10 10:37:11;;;;;;;23.52;21.75;;;18.50;99.90;;;;;;4936953;28;20173;-73
2022/10/10 10:39:56;;;;;;;23.23;21.45;;;18.50;99.90;;;;;;4936039;28;20073;-73
2022/10/10 10:42:41;;;;;;;24.30;22.30;;;18.50;99.90;;;;;;4987143;28;20038;-72
2022/10/10 10:45:43;;;;;;;23.42;21.65;;;18.20;99.90;;;;;;4992606;28;20517;-72
2022/10/10 10:48:47;;;;;;;23.25;21.52;;;18.10;99.90;;;;;;4991013;28;20042;-73
2022/10/10 10:51:52;;;;;;;24.05;21.52;;;18.30;99.90;;;;;;4995583;28;20048;-73
2022/10/10 10:54:43;;;;;;;23.00;21.38;;;18.50;99.90;;;;;;4989344;28;20057;-73
2022/10/10 10:57:18;;;;;;;24.00;22.05;;;18.60;99.90;;;;;;4991400;28;20077;-73
2022/10/10 11:00:13;;;;;;;24.10;21.88;;;18.80;99.90;;;;;;4990801;28;20042;-73
2022/10/10 11:03:10;;;;;;;23.20;21.30;;;18.90;99.90;;;;;;4990181;28;20484;-73
2022/10/10 11:06:22;;;;;;;23.85;21.92;;;19.10;99.90;;;;;;4990651;28;20041;-73
2022/10/10 11:09:07;;;;;;;24.60;22.80;;;19.30;99.90;;;;;;4989141;28;20073;-73
2022/10/10 11:12:12;;;;;;;23.48;21.80;;;19.50;99.90;;;;;;4988745;28;20041;-72
2022/10/10 11:15:15;;;;;;;24.00;22.00;;;19.30;99.90;;;;;;4992637;28;20057;-73
2022/10/10 11:17:59;;;;;;;23.73;21.85;;;19.30;99.90;;;;;;4993399;28;20574;-72
2022/10/10 11:20:37;;;;;;;23.60;21.88;;;19.30;99.90;;;;;;4992951;28;20045;-73
2022/10/10 11:23:20;;;;;;;23.27;21.75;;;19.20;99.90;;;;;;4990866;28;20608;-73
2022/10/10 11:25:53;;;;;;;23.95;21.77;;;19.00;99.90;;;;;;4990587;28;20045;-73
2022/10/10 11:28:50;;;;;;;24.92;22.83;;;19.10;99.90;;;;;;4994905;28;20046;-72
2022/10/10 11:31:25;;;;;;;23.63;21.60;;;18.80;99.90;;;;;;4990203;28;20146;-73
2022/10/10 11:33:57;;;;;;;25.55;23.42;;;18.70;99.90;;;;;;4991365;28;20175;-73
2022/10/10 11:36:28;;;;;;;24.70;22.23;;;18.70;99.90;;;;;;4993356;28;20045;-73
2022/10/10 11:39:04;;;;;;;24.33;22.65;;;18.60;99.90;;;;;;4992989;28;20038;-72
2022/10/10 11:41:39;;;;;;;24.80;22.67;;;18.40;99.90;;;;;;4995931;28;20038;-71
2022/10/10 11:44:22;;;;;;;23.77;21.98;;;18.40;99.90;;;;;;4996607;28;20046;-71
2022/10/10 11:47:19;;;;;;;24.23;22.08;;;18.70;99.90;;;;;;4996944;28;20498;-72
2022/10/10 11:49:57;;;;;;;24.05;22.27;;;19.00;99.90;;;;;;4994203;28;20068;-71
2022/10/10 11:52:47;;;;;;;24.48;22.67;;;19.10;99.90;;;;;;4997336;28;20041;-72
2022/10/10 11:55:38;;;;;;;24.08;22.38;;;19.20;99.90;;;;;;4960852;28;20042;-71
2022/10/10 11:58:05;;;;;;;25.65;23.20;;;19.10;99.90;;;;;;4995483;28;20048;-72
2022/10/10 12:00:36;;;;;;;24.92;22.80;;;19.00;99.90;;;;;;4996300;28;20042;-71
2022/10/10 12:03:05;;;;;;;24.52;22.75;;;19.10;99.90;;;;;;4995290;28;20049;-72
2022/10/10 12:05:37;;;;;;;23.80;22.30;;;19.00;99.90;;;;;;4993675;28;20038;-71
2022/10/10 12:08:13;;;;;;;24.02;22.23;;;19.00;99.90;;;;;;4994151;28;20118;-72
2022/10/10 12:10:57;;;;;;;24.38;22.63;;;19.10;99.90;;;;;;4992525;28;20503;-73
2022/10/10 12:13:29;;;;;;;24.58;22.80;;;19.00;99.90;;;;;;4994957;28;20056;-71
2022/10/10 12:16:00;;;;;;;22.92;21.30;;;18.80;99.90;;;;;;4990987;28;20048;-72
2022/10/10 12:18:36;;;;;;;25.23;23.30;;;19.00;99.90;;;;;;4996308;28;20038;-72
2022/10/10 12:21:07;;;;;;;24.42;22.48;;;19.10;99.90;;;;;;4991287;28;20038;-71
2022/10/10 12:23:35;;;;;;;26.02;23.75;;;19.20;99.90;;;;;;4995553;28;20042;-72
2022/10/10 12:26:01;;;;;;;25.67;23.40;;;19.20;99.90;;;;;;4992309;28;20070;-72
2022/10/10 12:28:55;;;;;;;23.63;21.77;;;19.20;99.90;;;;;;4996465;28;20543;-72
2022/10/10 12:31:32;;;;;;;24.75;22.60;;;19.20;99.90;;;;;;4994387;28;20042;-72
2022/10/10 12:34:13;;;;;;;25.23;23.15;;;19.10;99.90;;;;;;4991389;28;20693;-72
2022/10/10 12:36:42;;;;;;;24.92;22.70;;;19.10;99.90;;;;;;4995154;28;20157;-71
2022/10/10 12:39:09;;;;;;;25.88;23.52;;;19.20;99.90;;;;;;4994435;28;20042;-72
2022/10/10 12:41:45;;;;;;;23.98;22.08;;;19.00;99.90;;;;;;4993612;28;20063;-71
2022/10/10 12:44:41;;;;;;;24.10;22.15;;;18.90;99.90;;;;;;4994981;28;20758;-72
2022/10/10 12:47:26;;;;;;;24.23;22.50;;;18.80;99.90;;;;;;4994482;28;20597;-74
2022/10/10 12:50:24;;;;;;;25.93;23.40;;;18.80;99.90;;;;;;4998676;28;20291;-72
2022/10/10 12:52:57;;;;;;;24.33;22.30;;;18.70;99.90;;;;;;5034420;28;20048;-71
2022/10/10 12:55:41;;;;;;;24.42;22.45;;;18.80;99.90;;;;;;5021220;28;20378;-72
2022/10/10 12:58:14;;;;;;;25.30;23.17;;;19.10;99.90;;;;;;5022993;28;20061;-71
2022/10/10 13:00:55;;;;;;;24.17;22.20;;;19.40;99.90;;;;;;4999129;28;20054;-72